createdAt,value
2022-08-31T00:01:08.245Z,52.80
2022-08-31T00:03:34.998Z,52.59
2022-08-31T00:06:01.009Z,52.89
2022-08-31T00:08:27.074Z,52.59
2022-08-31T00:10:53.037Z,53.17
2022-08-31T00:13:19.077Z,53.47
2022-08-31T00:15:45.193Z,52.89
2022-08-31T00:18:11.297Z,52.60
2022-08-31T00:20:38.054Z,52.65
2022-08-31T00:23:04.094Z,53.17
2022-08-31T00:25:30.044Z,53.92
2022-08-31T00:27:55.984Z,53.78
2022-08-31T00:30:21.987Z,53.63
2022-08-31T00:32:48.695Z,54.15
2022-08-31T00:35:15.916Z,54.23
2022-08-31T00:37:42.034Z,53.93
2022-08-31T00:40:08.852Z,53.71
2022-08-31T00:42:34.882Z,53.56
2022-08-31T00:45:00.875Z,54.12
2022-08-31T00:47:26.801Z,54.19
2022-08-31T00:49:53.545Z,54.31
2022-08-31T00:52:19.586Z,54.72
2022-08-31T00:54:46.216Z,54.38
2022-08-31T00:57:12.241Z,54.09
2022-08-31T00:59:38.248Z,53.71
2022-08-31T01:02:05.048Z,53.76
2022-08-31T01:04:31.096Z,53.87
2022-08-31T01:06:58.081Z,53.90
2022-08-31T01:09:24.064Z,53.46
2022-08-31T01:11:50.022Z,53.41
2022-08-31T01:14:16.052Z,53.32
2022-08-31T01:16:42.046Z,53.71
2022-08-31T01:19:08.039Z,53.92
2022-08-31T01:21:34.085Z,53.50
2022-08-31T01:24:00.069Z,53.86
2022-08-31T01:26:26.008Z,54.02
2022-08-31T01:28:52.137Z,53.77
2022-08-31T01:31:18.217Z,54.36
2022-08-31T01:33:44.253Z,55.14
2022-08-31T01:36:13.144Z,54.54
2022-08-31T01:38:41.908Z,54.77
2022-08-31T01:41:07.875Z,54.70
2022-08-31T01:43:33.874Z,54.53
2022-08-31T01:45:59.832Z,54.50
2022-08-31T01:48:26.495Z,54.27
2022-08-31T01:50:52.712Z,54.60
2022-08-31T01:53:18.798Z,54.73
2022-08-31T01:55:45.713Z,55.15
2022-08-31T01:58:11.714Z,54.84
2022-08-31T02:00:37.674Z,55.34
2022-08-31T02:03:04.398Z,54.91
2022-08-31T02:05:30.394Z,55.42
2022-08-31T02:07:56.354Z,55.66
2022-08-31T02:10:22.300Z,55.66
2022-08-31T02:12:48.284Z,55.26
2022-08-31T02:15:14.239Z,54.92
2022-08-31T02:17:40.184Z,55.58
2022-08-31T02:20:06.177Z,55.20
2022-08-31T02:22:32.832Z,55.15
2022-08-31T02:24:58.790Z,54.77
2022-08-31T02:27:24.841Z,55.06
2022-08-31T02:29:50.816Z,54.63
2022-08-31T02:32:19.727Z,54.79
2022-08-31T02:34:46.367Z,54.53
2022-08-31T02:37:12.337Z,54.60
2022-08-31T02:39:38.661Z,55.25
2022-08-31T02:42:05.650Z,55.33
2022-08-31T02:44:34.277Z,55.16
2022-08-31T02:47:00.530Z,55.48
2022-08-31T02:49:26.986Z,55.89
2022-08-31T02:51:53.652Z,55.68
2022-08-31T02:54:20.901Z,55.99
2022-08-31T02:56:47.250Z,55.77
2022-08-31T02:59:13.479Z,56.06
2022-08-31T03:01:41.100Z,55.08
2022-08-31T03:04:07.337Z,55.35
2022-08-31T05:24:23.149Z,55.58
2022-08-31T05:26:50.850Z,56.52
2022-08-31T05:29:17.425Z,55.58
2022-08-31T05:31:43.425Z,55.78
2022-08-31T05:34:10.160Z,56.22
2022-08-31T05:36:36.189Z,57.70
2022-08-31T05:39:02.203Z,56.82
2022-08-31T05:41:28.144Z,56.77
2022-08-31T05:43:54.879Z,55.34
2022-08-31T05:46:20.976Z,54.72
2022-08-31T05:48:49.155Z,54.74
2022-08-31T05:51:16.442Z,54.79
2022-08-31T05:53:42.521Z,54.70
2022-08-31T05:56:08.461Z,54.10
2022-08-31T05:58:35.060Z,53.36
2022-08-31T06:01:01.052Z,53.30
2022-08-31T06:03:26.993Z,53.23
2022-08-31T06:05:52.956Z,53.45
2022-08-31T06:08:18.975Z,55.01
2022-08-31T06:10:53.186Z,54.07
2022-08-31T06:16:05.192Z,54.67
2022-08-31T06:18:31.234Z,54.42
2022-08-31T06:52:11.304Z,52.63
2022-08-31T07:20:11.531Z,50.18
2022-08-31T07:22:37.577Z,50.52
2022-08-31T07:25:03.644Z,49.70
2022-08-31T07:27:29.669Z,50.63
2022-08-31T07:29:55.660Z,49.87
2022-08-31T07:32:22.467Z,50.19
2022-08-31T07:34:55.213Z,50.53
2022-08-31T07:37:23.582Z,49.58
2022-08-31T07:39:49.581Z,49.64
2022-08-31T07:42:15.582Z,49.90
2022-08-31T07:44:41.571Z,50.53
2022-08-31T07:47:07.896Z,50.14
2022-08-31T07:49:34.855Z,50.86
2022-08-31T07:52:00.842Z,50.38
2022-08-31T07:54:26.816Z,50.68
2022-08-31T07:56:52.827Z,50.78
2022-08-31T07:59:18.804Z,50.41
2022-08-31T08:01:44.915Z,50.12
2022-08-31T08:04:10.994Z,50.11
2022-08-31T08:06:37.018Z,49.84
2022-08-31T08:09:22.201Z,50.57
2022-08-31T08:11:49.800Z,50.90
2022-08-31T08:14:17.501Z,51.35
2022-08-31T08:16:44.498Z,51.48
2022-08-31T08:19:11.459Z,51.98
2022-08-31T08:21:43.827Z,53.27
2022-08-31T08:24:10.215Z,54.05
2022-08-31T08:26:38.149Z,54.72
2022-08-31T08:29:05.391Z,54.94
2022-08-31T08:36:52.922Z,56.56
2022-08-31T08:42:00.220Z,57.98
2022-08-31T10:29:31.909Z,53.08
2022-08-31T10:31:57.863Z,52.10
2022-08-31T10:34:23.876Z,52.55
2022-08-31T10:36:49.869Z,51.82
2022-08-31T10:39:16.594Z,51.88
2022-08-31T10:41:42.568Z,51.67
2022-08-31T10:44:08.530Z,50.72
2022-08-31T10:46:35.668Z,50.24
2022-08-31T10:49:01.747Z,50.68
2022-08-31T10:51:27.725Z,49.89
2022-08-31T10:53:53.662Z,50.88
2022-08-31T10:56:20.372Z,50.87
2022-08-31T10:58:50.026Z,49.87
2022-08-31T11:01:16.021Z,49.96
2022-08-31T11:03:42.766Z,48.87
2022-08-31T11:06:08.743Z,48.62
2022-08-31T11:08:34.718Z,47.72
2022-08-31T11:11:01.595Z,47.89
2022-08-31T11:13:27.580Z,48.57
2022-08-31T11:15:53.588Z,48.19
2022-08-31T11:18:20.363Z,47.98
2022-08-31T11:20:46.394Z,48.69
2022-08-31T11:23:12.379Z,46.91
2022-08-31T11:25:39.299Z,47.67
2022-08-31T11:28:05.277Z,48.92
2022-08-31T11:30:31.240Z,49.58
2022-08-31T11:32:58.079Z,49.07
2022-08-31T11:35:24.061Z,48.59
2022-08-31T11:37:50.134Z,48.90
2022-08-31T11:40:16.993Z,50.00
2022-08-31T11:42:42.989Z,48.63
2022-08-31T11:45:11.827Z,48.56
2022-08-31T11:47:39.937Z,48.70
2022-08-31T11:50:07.653Z,48.52
2022-08-31T11:52:33.969Z,48.35
2022-08-31T11:55:00.945Z,49.29
2022-08-31T11:57:26.894Z,49.43
2022-08-31T11:59:52.843Z,49.28
2022-08-31T12:02:19.665Z,48.74
2022-08-31T12:04:45.803Z,48.91
2022-08-31T12:07:11.784Z,48.93
2022-08-31T12:09:37.714Z,49.12
2022-08-31T12:12:03.674Z,49.45
2022-08-31T12:14:30.420Z,49.23
2022-08-31T12:16:56.429Z,49.11
2022-08-31T12:19:22.412Z,49.74
2022-08-31T12:21:48.445Z,51.20
2022-08-31T12:24:18.694Z,51.26
2022-08-31T12:26:45.595Z,51.07
2022-08-31T12:29:12.278Z,51.21
2022-08-31T12:31:38.379Z,51.68
2022-08-31T12:34:04.426Z,51.07
2022-08-31T12:36:30.385Z,51.88
2022-08-31T12:38:57.104Z,51.28
2022-08-31T12:41:25.388Z,51.96
2022-08-31T12:43:51.570Z,52.24
2022-08-31T12:46:17.566Z,53.61
2022-08-31T12:48:43.688Z,53.68
2022-08-31T12:51:09.717Z,53.53
2022-08-31T12:53:35.670Z,54.08
2022-08-31T12:56:01.609Z,54.30
2022-08-31T12:58:27.985Z,55.34
2022-08-31T13:00:53.963Z,56.58
2022-08-31T13:03:20.987Z,55.33
2022-08-31T13:05:47.919Z,55.92
2022-08-31T13:08:14.254Z,57.22
2022-08-31T13:10:40.494Z,56.93
2022-08-31T13:13:08.857Z,58.63
2022-08-31T13:15:39.431Z,57.79
2022-08-31T13:18:06.070Z,58.00
2022-08-31T13:20:32.427Z,57.43
2022-08-31T13:22:59.540Z,57.28
2022-08-31T15:28:25.782Z,64.84
2022-08-31T15:30:51.726Z,64.75
2022-08-31T15:33:17.699Z,64.94
2022-08-31T15:35:43.656Z,65.41
2022-08-31T15:38:10.341Z,65.33
2022-08-31T15:40:39.019Z,64.60
2022-08-31T15:43:05.369Z,64.27
2022-08-31T15:45:32.138Z,64.81
2022-08-31T15:47:58.149Z,64.71
2022-08-31T15:50:25.046Z,64.75
2022-08-31T15:52:52.193Z,64.26
2022-08-31T15:55:18.306Z,64.21
2022-08-31T15:57:44.252Z,64.51
2022-08-31T16:00:10.218Z,65.29
2022-08-31T16:02:36.274Z,64.50
2022-08-31T16:05:02.290Z,64.55
2022-08-31T16:07:28.263Z,64.73
2022-08-31T16:09:54.839Z,65.20
2022-08-31T16:12:20.818Z,65.16
2022-08-31T16:14:47.416Z,64.96
2022-08-31T16:17:13.418Z,65.95
2022-08-31T16:19:39.381Z,65.71
2022-08-31T16:22:05.373Z,65.21
2022-08-31T16:24:31.342Z,64.94
2022-08-31T16:26:57.510Z,65.40
2022-08-31T16:29:23.501Z,65.54
2022-08-31T16:31:49.554Z,65.65
2022-08-31T16:34:15.561Z,64.90
2022-08-31T16:36:42.260Z,65.24
2022-08-31T16:39:09.367Z,64.87
2022-08-31T16:41:35.583Z,64.66
2022-08-31T16:44:18.981Z,65.18
2022-08-31T16:46:46.553Z,65.53
2022-08-31T16:49:12.571Z,66.26
2022-08-31T16:51:38.533Z,67.45
2022-08-31T16:54:04.496Z,68.14
2022-08-31T16:56:30.473Z,67.69
2022-08-31T16:58:57.409Z,67.76
2022-08-31T17:01:23.777Z,67.48
2022-08-31T17:03:49.834Z,67.26
2022-08-31T17:06:15.802Z,66.42
2022-08-31T17:08:42.447Z,67.15
2022-08-31T17:11:08.420Z,66.37
2022-08-31T17:13:34.386Z,66.14
2022-08-31T17:16:01.186Z,66.07
2022-08-31T17:18:27.226Z,66.12
2022-08-31T17:20:53.209Z,65.63
2022-08-31T17:23:19.164Z,64.84
2022-08-31T17:25:45.153Z,65.31
2022-08-31T17:28:11.148Z,65.02
2022-08-31T17:30:37.117Z,65.25
2022-08-31T17:33:03.053Z,64.99
2022-08-31T17:35:29.024Z,65.33
2022-08-31T17:37:55.057Z,65.43
2022-08-31T17:40:21.134Z,65.14
2022-08-31T17:42:47.863Z,65.00
2022-08-31T17:45:13.933Z,64.74
2022-08-31T17:47:39.891Z,64.70
2022-08-31T17:50:06.821Z,64.71
2022-08-31T17:52:32.875Z,64.74
2022-08-31T17:54:59.454Z,64.41
2022-08-31T17:57:26.247Z,64.40
2022-08-31T17:59:52.236Z,64.95
2022-08-31T18:02:18.210Z,65.48
2022-08-31T18:04:46.017Z,65.17
2022-08-31T18:07:12.303Z,64.86
2022-08-31T18:09:38.863Z,65.05
2022-08-31T18:12:05.196Z,65.26
2022-08-31T18:14:31.513Z,65.19
2022-08-31T18:16:59.177Z,64.95
2022-08-31T18:19:27.302Z,65.56
2022-08-31T20:10:29.867Z,66.55
2022-08-31T20:12:56.381Z,65.58
2022-08-31T20:15:23.131Z,65.18
2022-08-31T20:17:49.127Z,65.63
2022-08-31T20:20:15.095Z,65.71
2022-08-31T20:22:41.133Z,66.26
2022-08-31T20:25:07.124Z,66.30
2022-08-31T20:27:33.096Z,66.50
2022-08-31T20:30:00.980Z,66.41
2022-08-31T20:32:27.243Z,66.29
2022-08-31T20:34:53.192Z,66.27
2022-08-31T20:37:19.159Z,66.16
2022-08-31T20:39:46.044Z,65.75
2022-08-31T20:42:11.998Z,65.72
2022-08-31T20:44:38.854Z,65.75
2022-08-31T20:47:04.815Z,65.92
2022-08-31T20:49:30.807Z,66.12
2022-08-31T20:51:56.782Z,66.32
2022-08-31T20:54:23.422Z,66.46
2022-08-31T20:56:49.468Z,66.43
2022-08-31T20:59:16.210Z,66.10
2022-08-31T21:01:42.286Z,65.85
2022-08-31T21:04:08.342Z,66.00
2022-08-31T21:06:35.034Z,65.90
2022-08-31T21:09:00.980Z,65.62
2022-08-31T21:11:26.947Z,65.24
2022-08-31T21:13:52.916Z,65.68
2022-08-31T21:16:18.921Z,66.34
2022-08-31T21:18:45.719Z,66.29
2022-08-31T21:21:11.685Z,66.29
2022-08-31T21:23:37.649Z,66.21
2022-08-31T21:26:04.358Z,65.86
2022-08-31T21:28:30.364Z,65.81
2022-08-31T21:30:56.342Z,65.53
2022-08-31T21:33:23.213Z,65.94
2022-08-31T21:35:49.205Z,65.81
2022-08-31T21:38:15.157Z,65.24
2022-08-31T21:40:42.260Z,65.13
2022-08-31T21:43:08.340Z,65.20
2022-08-31T21:45:34.294Z,65.23
2022-08-31T21:48:00.257Z,65.01
2022-08-31T21:50:26.190Z,65.73
2022-08-31T21:52:52.137Z,65.75
2022-08-31T21:55:18.167Z,65.72
2022-08-31T21:57:44.116Z,65.70
2022-08-31T22:00:10.960Z,65.91
2022-08-31T22:02:40.008Z,65.98
2022-08-31T22:05:10.052Z,65.78
2022-08-31T22:07:36.682Z,65.82
2022-08-31T22:10:04.331Z,65.89
2022-08-31T22:12:30.264Z,66.09
2022-08-31T22:14:56.474Z,66.56
2022-08-31T22:17:29.480Z,66.79
2022-08-31T22:20:09.315Z,67.00
2022-08-31T22:22:36.083Z,66.85
2022-08-31T22:25:02.942Z,66.38
2022-08-31T22:27:29.844Z,66.42
2022-08-31T22:29:55.866Z,66.31
2022-08-31T22:32:22.566Z,66.40
2022-08-31T22:34:48.609Z,66.60
2022-08-31T22:37:14.583Z,66.64
2022-08-31T22:39:40.522Z,66.56
2022-08-31T22:42:06.534Z,66.86
2022-08-31T22:44:32.481Z,66.60
2022-08-31T22:46:59.289Z,66.60
2022-08-31T22:49:25.607Z,66.21
2022-08-31T22:51:51.881Z,66.10
2022-08-31T22:54:19.624Z,66.32
2022-08-31T22:56:45.944Z,66.26
2022-08-31T22:59:12.212Z,66.06
